.
WxDataArchive / Data Records for 2008-12-25
2008-12-24 December 2008 2008-12-26

Data Records for Thursday, 25 December 2008

Time	Temp	Chill	HIndex	Humid	Dewpt	 Wind 	HiWind	WindDir	Rain 	Barom 
-----	----	-----	------	-----	-----	------	------	-------	-----	----- 
00:00	17.8	17.8	17.8	74	10.9	3	10	270	0.00	30.189 
00:05	17.8	17.8	17.8	75	11.2	2	6	270	0.00	30.193 
00:10	17.7	17.7	17.7	75	11.1	3	7	248	0.00	30.198 
00:15	17.5	17.5	17.5	75	11.0	2	5	270	0.00	30.200 
00:20	17.5	17.5	17.5	74	10.7	3	5	270	0.00	30.199 
00:25	17.5	17.5	17.5	73	10.3	3	7	270	0.00	30.198 
00:30	17.5	17.5	17.5	73	10.3	2	5	248	0.00	30.200 
00:35	17.5	17.5	17.5	73	10.3	2	5	270	0.00	30.201 
00:40	17.2	11.0	17.2	72	9.8	4	10	270	0.00	30.203 
00:45	17.0	17.0	17.0	72	9.6	3	8	270	0.00	30.211 
00:50	16.9	16.9	16.9	72	9.5	3	7	270	0.00	30.214 
00:55	16.9	16.9	16.9	72	9.5	2	5	270	0.00	30.216 
01:00	16.7	16.7	16.7	72	9.3	3	5	270	0.00	30.217 
01:05	16.5	10.2	16.5	71	8.8	4	9	270	0.00	30.221 
01:10	16.4	10.1	16.4	71	8.7	4	9	270	0.00	30.222 
01:15	16.4	16.4	16.4	72	9.0	3	10	270	0.00	30.229 
01:20	16.5	16.5	16.5	72	9.1	1	7	270	0.00	30.232 
01:25	16.4	16.4	16.4	72	9.0	2	7	270	0.00	30.233 
01:30	16.4	16.4	16.4	72	9.0	2	5	248	0.00	30.235 
01:35	16.2	16.2	16.2	72	8.8	3	6	270	0.00	30.237 
01:40	16.1	16.1	16.1	72	8.7	2	5	270	0.00	30.246 
01:45	16.1	16.1	16.1	72	8.7	3	7	270	0.00	30.249 
01:50	16.1	16.1	16.1	73	9.0	3	7	248	0.00	30.250 
01:55	16.1	16.1	16.1	73	9.0	2	5	270	0.00	30.253 
02:00	16.1	16.1	16.1	73	9.0	3	7	270	0.00	30.251 
02:05	15.9	15.9	15.9	73	8.8	3	7	270	0.00	30.251 
02:10	15.9	15.9	15.9	73	8.8	2	5	248	0.00	30.253 
02:15	15.9	15.9	15.9	73	8.8	1	3	292	0.00	30.251 
02:20	15.6	15.6	15.6	73	8.5	2	10	270	0.00	30.250 
02:25	15.4	15.4	15.4	72	8.0	1	5	270	0.00	30.252 
02:30	15.2	15.2	15.2	73	8.1	1	3	248	0.00	30.252 
02:35	15.2	15.2	15.2	72	7.8	1	4	270	0.00	30.252 
02:40	15.1	15.1	15.1	72	7.7	2	5	248	0.00	30.259 
02:45	14.9	14.9	14.9	72	7.5	1	6	248	0.00	30.268 
02:50	14.9	14.9	14.9	73	7.8	2	6	248	0.00	30.273 
02:55	14.9	14.9	14.9	73	7.8	1	2	270	0.00	30.283 
03:00	14.9	14.9	14.9	73	7.8	1	4	248	0.00	30.289 
03:05	14.9	14.9	14.9	73	7.8	1	3	270	0.00	30.297 
03:10	14.9	14.9	14.9	73	7.8	1	3	248	0.00	30.302 
03:15	14.9	14.9	14.9	73	7.8	1	4	248	0.00	30.312 
03:20	14.8	14.8	14.8	73	7.7	2	6	270	0.00	30.315 
03:25	14.8	14.8	14.8	73	7.7	2	6	248	0.00	30.315 
03:30	14.8	14.8	14.8	73	7.7	1	4	248	0.00	30.318 
03:35	14.6	14.6	14.6	73	7.5	2	7	248	0.00	30.320 
03:40	14.4	14.4	14.4	73	7.4	2	4	270	0.00	30.326 
03:45	14.4	14.4	14.4	73	7.4	1	3	270	0.00	30.335 
03:50	14.6	14.6	14.6	74	7.8	1	5	270	0.00	30.338 
03:55	14.4	14.4	14.4	73	7.4	2	7	248	0.00	30.342 
04:00	14.4	14.4	14.4	73	7.4	2	6	248	0.00	30.348 
04:05	14.3	14.3	14.3	74	7.6	2	5	248	0.00	30.352 
04:10	14.3	14.3	14.3	74	7.6	1	3	248	0.00	30.356 
04:15	14.1	14.1	14.1	73	7.1	3	6	270	0.00	30.358 
04:20	14.0	14.0	14.0	73	7.0	2	5	248	0.00	30.358 
04:25	14.0	14.0	14.0	73	7.0	2	4	248	0.00	30.367 
04:30	14.0	14.0	14.0	74	7.3	2	6	270	0.00	30.368 
04:35	13.8	13.8	13.8	73	6.8	2	5	270	0.00	30.368 
04:40	13.6	13.6	13.6	73	6.6	2	4	270	0.00	30.368 
04:45	13.6	13.6	13.6	74	6.9	1	2	315	0.00	30.368 
04:50	13.6	13.6	13.6	73	6.6	1	5	248	0.00	30.366 
04:55	13.5	13.5	13.5	73	6.5	2	5	248	0.00	30.366 
05:00	13.5	13.5	13.5	74	6.8	1	3	338	0.00	30.364 
05:05	13.3	13.3	13.3	73	6.3	2	6	248	0.00	30.368 
05:10	13.3	13.3	13.3	73	6.3	1	3	270	0.00	30.368 
05:15	13.3	13.3	13.3	74	6.6	1	3	270	0.00	30.372 
05:20	13.3	13.3	13.3	74	6.6	1	4	248	0.00	30.373 
05:25	13.3	13.3	13.3	75	6.9	1	4	248	0.00	30.374 
05:30	12.9	12.9	12.9	74	6.2	1	3	338	0.00	30.373 
05:35	12.9	12.9	12.9	74	6.2	0	2	338	0.00	30.376 
05:40	12.8	12.8	12.8	74	6.1	0	1	315	0.00	30.377 
05:45	12.8	12.8	12.8	74	6.1	1	4	315	0.00	30.381 
05:50	12.8	12.8	12.8	74	6.1	1	3	315	0.00	30.382 
05:55	12.8	12.8	12.8	74	6.1	0	2	315	0.00	30.387 
06:00	12.8	12.8	12.8	74	6.1	1	2	248	0.00	30.390 
06:05	12.8	12.8	12.8	74	6.1	1	3	248	0.00	30.395 
06:10	12.8	12.8	12.8	74	6.1	1	2	248	0.00	30.401 
06:15	12.8	12.8	12.8	74	6.1	0	2	270	0.00	30.404 
06:20	12.8	12.8	12.8	73	5.8	0	3	248	0.00	30.407 
06:25	12.8	12.8	12.8	74	6.1	0	1	248	0.00	30.407 
06:30	12.8	12.8	12.8	73	5.8	0	2	248	0.00	30.408 
06:35	12.8	12.8	12.8	74	6.1	0	1	248	0.00	30.409 
06:40	12.9	12.9	12.9	75	6.5	0	1	248	0.00	30.412 
06:45	12.8	12.8	12.8	74	6.1	0	2	248	0.00	30.416 
06:50	12.6	12.6	12.6	74	5.9	0	1	248	0.00	30.414 
06:55	12.4	12.4	12.4	74	5.7	0	1	248	0.00	30.418 
07:00	12.4	12.4	12.4	74	5.7	0	2	248	0.00	30.419 
07:05	12.3	12.3	12.3	74	5.6	0	1	248	0.00	30.421 
07:10	12.1	12.1	12.1	74	5.4	0	1	248	0.00	30.423 
07:15	12.1	12.1	12.1	75	5.7	0	1	248	0.00	30.427 
07:20	12.1	12.1	12.1	75	5.7	0	2	248	0.00	30.427 
07:25	12.1	12.1	12.1	75	5.7	0	1	248	0.00	30.430 
07:30	12.1	12.1	12.1	75	5.7	0	1	248	0.00	30.430 
07:35	12.1	12.1	12.1	75	5.7	0	0	---	0.00	30.431 
07:40	12.1	12.1	12.1	75	5.7	0	1	248	0.00	30.432 
07:45	11.9	11.9	11.9	76	5.8	0	1	248	0.00	30.430 
07:50	11.9	11.9	11.9	76	5.8	0	0	---	0.00	30.429 
07:55	11.7	11.7	11.7	75	5.3	0	1	248	0.00	30.428 
08:00	11.7	11.7	11.7	76	5.6	0	1	248	0.00	30.428 
08:05	11.6	11.6	11.6	76	5.5	0	0	---	0.00	30.433 
08:10	11.6	11.6	11.6	76	5.5	0	0	---	0.00	30.432 
08:15	11.4	11.4	11.4	76	5.3	0	0	---	0.00	30.435 
08:20	11.4	11.4	11.4	76	5.3	0	1	248	0.00	30.442 
08:25	11.4	11.4	11.4	77	5.6	0	0	---	0.00	30.445 
08:30	11.4	11.4	11.4	77	5.6	0	0	---	0.00	30.449 
08:35	11.4	11.4	11.4	77	5.6	0	1	248	0.00	30.454 
08:40	11.6	11.6	11.6	77	5.8	0	1	248	0.00	30.460 
08:45	11.7	11.7	11.7	77	5.9	0	0	---	0.00	30.461 
08:50	11.9	11.9	11.9	77	6.1	0	2	248	0.00	30.462 
08:55	11.9	11.9	11.9	76	5.8	0	1	248	0.00	30.462 
09:00	12.1	12.1	12.1	76	6.0	0	1	248	0.00	30.463 
09:05	12.1	12.1	12.1	76	6.0	0	2	248	0.00	30.466 
09:10	12.1	12.1	12.1	75	5.7	0	2	248	0.00	30.465 
09:15	12.4	12.4	12.4	75	6.0	0	1	248	0.00	30.466 
09:20	12.6	12.6	12.6	75	6.2	0	2	248	0.00	30.464 
09:25	12.6	12.6	12.6	74	5.9	0	1	248	0.00	30.468 
09:30	12.8	12.8	12.8	74	6.1	0	2	248	0.00	30.465 
09:35	12.9	12.9	12.9	74	6.2	0	1	248	0.00	30.470 
09:40	13.3	13.3	13.3	74	6.6	0	1	248	0.00	30.470 
09:45	13.5	13.5	13.5	73	6.5	0	2	248	0.00	30.474 
09:50	13.6	13.6	13.6	73	6.6	0	1	248	0.00	30.471 
09:55	13.8	13.8	13.8	72	6.5	0	2	248	0.00	30.477 
10:00	14.0	14.0	14.0	72	6.7	0	2	248	0.00	30.478 
10:05	14.0	14.0	14.0	71	6.4	0	2	248	0.00	30.479 
10:10	14.1	14.1	14.1	71	6.5	0	3	248	0.00	30.481 
10:15	14.3	14.3	14.3	70	6.3	0	2	248	0.00	30.488 
10:20	14.4	14.4	14.4	71	6.7	0	2	248	0.00	30.489 
10:25	14.6	14.6	14.6	70	6.6	0	2	248	0.00	30.492 
10:30	14.9	14.9	14.9	70	6.9	0	1	248	0.00	30.493 
10:35	15.1	15.1	15.1	70	7.1	0	3	248	0.00	30.494 
10:40	15.2	15.2	15.2	69	6.9	1	4	248	0.00	30.497 
10:45	15.2	15.2	15.2	69	6.9	1	3	248	0.00	30.497 
10:50	15.4	15.4	15.4	69	7.1	1	3	248	0.00	30.501 
10:55	15.6	15.6	15.6	69	7.3	0	3	248	0.00	30.500 
11:00	15.9	15.9	15.9	69	7.6	1	4	248	0.00	30.499 
11:05	16.1	16.1	16.1	68	7.4	1	3	248	0.00	30.500 
11:10	16.2	16.2	16.2	68	7.5	1	2	248	0.00	30.500 
11:15	16.4	16.4	16.4	67	7.4	0	3	248	0.00	30.496 
11:20	16.5	16.5	16.5	67	7.5	0	2	248	0.00	30.495 
11:25	16.7	16.7	16.7	67	7.7	1	2	248	0.00	30.494 
11:30	16.7	16.7	16.7	67	7.7	0	2	225	0.00	30.495 
11:35	16.9	16.9	16.9	67	7.9	1	2	202	0.00	30.497 
11:40	16.9	16.9	16.9	66	7.5	1	3	248	0.00	30.496 
11:45	17.0	17.0	17.0	68	8.3	0	1	248	0.00	30.495 
11:50	17.3	17.3	17.3	68	8.6	0	2	248	0.00	30.497 
11:55	17.3	17.3	17.3	66	7.9	0	2	248	0.00	30.497 
12:00	17.5	17.5	17.5	66	8.1	1	3	248	0.00	30.493 
12:05	17.7	17.7	17.7	66	8.3	0	3	248	0.00	30.493 
12:10	18.0	18.0	18.0	67	8.9	0	2	248	0.00	30.492 
12:15	18.0	18.0	18.0	66	8.6	1	3	90	0.00	30.490 
12:20	18.1	18.1	18.1	66	8.7	0	1	90	0.00	30.485 
12:25	18.1	18.1	18.1	66	8.7	0	2	90	0.00	30.480 
12:30	18.3	18.3	18.3	66	8.9	0	2	90	0.00	30.482 
12:35	18.3	18.3	18.3	66	8.9	0	2	90	0.00	30.480 
12:40	18.6	18.6	18.6	67	9.5	0	2	90	0.00	30.478 
12:45	18.6	18.6	18.6	65	8.8	1	3	248	0.00	30.473 
12:50	18.6	18.6	18.6	65	8.8	0	4	248	0.00	30.470 
12:55	18.8	18.8	18.8	65	9.0	1	3	248	0.00	30.464 
13:00	18.8	18.8	18.8	64	8.7	1	3	90	0.00	30.462 
13:05	18.8	18.8	18.8	65	9.0	0	2	112	0.00	30.465 
13:10	18.6	18.6	18.6	64	8.5	1	3	112	0.00	30.463 
13:15	18.6	18.6	18.6	63	8.1	0	2	112	0.00	30.464 
13:20	18.8	18.8	18.8	64	8.7	0	3	112	0.00	30.465 
13:25	18.9	18.9	18.9	64	8.8	1	2	112	0.00	30.465 
13:30	19.2	19.2	19.2	64	9.0	0	1	112	0.00	30.462 
13:35	19.4	19.4	19.4	64	9.2	0	1	112	0.00	30.462 
13:40	19.5	19.5	19.5	63	9.0	0	2	112	0.00	30.464 
13:45	20.0	20.0	20.0	62	9.1	1	4	248	0.00	30.463 
13:50	20.0	20.0	20.0	61	8.7	0	2	248	0.00	30.462 
13:55	20.0	20.0	20.0	61	8.7	0	2	248	0.00	30.460 
14:00	20.2	20.2	20.2	61	8.9	0	1	248	0.00	30.458 
14:05	20.3	20.3	20.3	61	9.0	0	1	248	0.00	30.457 
14:10	20.5	20.5	20.5	61	9.2	0	1	315	0.00	30.455 
14:15	20.5	20.5	20.5	61	9.2	0	2	315	0.00	30.448 
14:20	20.2	20.2	20.2	60	8.6	0	2	315	0.00	30.448 
14:25	20.0	20.0	20.0	61	8.7	0	3	112	0.00	30.450 
14:30	20.0	20.0	20.0	62	9.1	0	1	112	0.00	30.453 
14:35	20.5	20.5	20.5	62	9.6	0	1	112	0.00	30.450 
14:40	21.0	21.0	21.0	61	9.7	0	1	112	0.00	30.446 
14:45	21.3	21.3	21.3	60	9.6	0	1	112	0.00	30.443 
14:50	21.3	21.3	21.3	60	9.6	0	2	112	0.00	30.440 
14:55	21.4	21.4	21.4	60	9.7	0	2	248	0.00	30.440 
15:00	21.6	21.6	21.6	59	9.5	0	2	248	0.00	30.439 
15:05	21.6	21.6	21.6	58	9.1	0	1	248	0.00	30.438 
15:10	21.6	21.6	21.6	58	9.1	0	1	248	0.00	30.436 
15:15	21.6	21.6	21.6	57	8.8	0	1	248	0.00	30.431 
15:20	21.6	21.6	21.6	58	9.1	0	1	248	0.00	30.435 
15:25	21.8	21.8	21.8	58	9.3	0	2	248	0.00	30.436 
15:30	21.8	21.8	21.8	58	9.3	0	1	248	0.00	30.437 
15:35	22.1	22.1	22.1	59	10.0	0	1	248	0.00	30.441 
15:40	22.4	22.4	22.4	58	9.9	0	1	248	0.00	30.440 
15:45	22.2	22.2	22.2	58	9.7	1	2	248	0.00	30.443 
15:50	21.9	21.9	21.9	58	9.4	0	2	248	0.00	30.445 
15:55	21.9	21.9	21.9	59	9.8	0	2	135	0.00	30.446 
16:00	21.8	21.8	21.8	60	10.1	0	1	135	0.00	30.446 
16:05	21.8	21.8	21.8	61	10.4	0	1	135	0.00	30.448 
16:10	21.8	21.8	21.8	61	10.4	0	2	135	0.00	30.450 
16:15	21.8	21.8	21.8	60	10.1	0	2	135	0.00	30.456 
16:20	21.8	21.8	21.8	61	10.4	0	2	135	0.00	30.456 
16:25	21.8	21.8	21.8	60	10.1	0	2	135	0.00	30.456 
16:30	21.9	21.9	21.9	61	10.5	0	3	68	0.00	30.457 
16:35	21.9	21.9	21.9	61	10.5	0	1	68	0.00	30.455 
16:40	21.9	21.9	21.9	61	10.5	0	1	68	0.00	30.459 
16:45	21.8	21.8	21.8	61	10.4	0	1	68	0.00	30.461 
16:50	21.8	21.8	21.8	62	10.8	0	1	68	0.00	30.462 
16:55	21.4	21.4	21.4	63	10.8	0	1	68	0.00	30.462 
17:00	21.3	21.3	21.3	64	11.0	0	0	---	0.00	30.466 
17:05	21.1	21.1	21.1	64	10.9	0	1	68	0.00	30.465 
17:10	21.1	21.1	21.1	65	11.2	0	1	68	0.00	30.464 
17:15	21.0	21.0	21.0	65	11.1	0	1	68	0.00	30.463 
17:20	21.0	21.0	21.0	65	11.1	0	1	68	0.00	30.460 
17:25	21.0	21.0	21.0	65	11.1	0	1	68	0.00	30.461 
17:30	21.0	21.0	21.0	65	11.1	0	1	68	0.00	30.458 
17:35	21.0	21.0	21.0	65	11.1	0	1	68	0.00	30.453 
17:40	21.0	21.0	21.0	67	11.8	0	0	---	0.00	30.451 
17:45	20.8	20.8	20.8	67	11.6	0	1	68	0.00	30.448 
17:50	20.8	20.8	20.8	68	11.9	0	1	68	0.00	30.444 
17:55	20.6	20.6	20.6	68	11.7	0	1	68	0.00	30.446 
18:00	20.5	20.5	20.5	68	11.6	0	1	68	0.00	30.446 
18:05	20.5	20.5	20.5	68	11.6	0	1	68	0.00	30.449 
18:10	20.3	20.3	20.3	69	11.8	0	1	68	0.00	30.448 
18:15	20.3	20.3	20.3	70	12.1	0	2	68	0.00	30.447 
18:20	20.3	20.3	20.3	70	12.1	0	1	68	0.00	30.443 
18:25	20.2	20.2	20.2	71	12.3	1	2	68	0.00	30.438 
18:30	20.2	20.2	20.2	71	12.3	0	2	68	0.00	30.449 
18:35	20.2	20.2	20.2	72	12.6	0	2	68	0.00	30.450 
18:40	20.0	20.0	20.0	72	12.5	0	1	68	0.00	30.457 
18:45	20.0	20.0	20.0	72	12.5	0	1	68	0.00	30.461 
18:50	19.9	19.9	19.9	72	12.4	0	2	68	0.00	30.457 
18:55	19.9	19.9	19.9	73	12.7	0	1	68	0.00	30.452 
19:00	19.7	19.7	19.7	73	12.5	1	3	68	0.00	30.445 
19:05	19.7	19.7	19.7	73	12.5	1	2	68	0.00	30.447 
19:10	19.7	19.7	19.7	74	12.8	1	2	68	0.00	30.448 
19:15	19.7	19.7	19.7	74	12.8	0	2	68	0.00	30.453 
19:20	19.9	19.9	19.9	74	13.0	0	2	68	0.00	30.458 
19:25	19.7	19.7	19.7	74	12.8	0	2	68	0.00	30.452 
19:30	19.7	19.7	19.7	74	12.8	1	2	68	0.00	30.453 
19:35	19.9	19.9	19.9	75	13.3	0	2	68	0.00	30.455 
19:40	19.9	19.9	19.9	75	13.3	1	3	68	0.00	30.449 
19:45	19.9	19.9	19.9	76	13.6	1	3	112	0.00	30.448 
19:50	20.0	20.0	20.0	76	13.7	1	2	112	0.00	30.449 
19:55	20.2	20.2	20.2	77	14.2	0	2	112	0.00	30.450 
20:00	20.2	20.2	20.2	77	14.2	1	2	112	0.00	30.440 
20:05	20.3	20.3	20.3	77	14.3	1	4	90	0.00	30.434 
20:10	20.5	20.5	20.5	78	14.8	1	2	90	0.00	30.433 
20:15	20.5	20.5	20.5	78	14.8	1	3	90	0.00	30.432 
20:20	20.6	20.6	20.6	78	14.8	1	3	90	0.00	30.425 
20:25	20.8	20.8	20.8	78	15.0	1	3	112	0.00	30.417 
20:30	21.0	21.0	21.0	78	15.2	1	4	112	0.00	30.415 
20:35	21.1	21.1	21.1	77	15.0	1	3	112	0.00	30.415 
20:40	21.3	21.3	21.3	77	15.2	1	4	112	0.00	30.416 
20:45	21.4	21.4	21.4	77	15.3	2	4	112	0.00	30.420 
20:50	21.6	21.6	21.6	77	15.5	1	3	112	0.00	30.418 
20:55	21.6	21.6	21.6	77	15.5	1	4	68	0.00	30.414 
21:00	21.6	21.6	21.6	77	15.5	0	2	90	0.00	30.415 
21:05	21.8	21.8	21.8	77	15.7	1	3	90	0.00	30.414 
21:10	21.8	21.8	21.8	77	15.7	1	3	90	0.00	30.411 
21:15	21.9	21.9	21.9	77	15.8	2	4	90	0.00	30.411 
21:20	22.1	22.1	22.1	77	16.0	2	5	112	0.00	30.404 
21:25	22.2	22.2	22.2	77	16.1	2	6	90	0.00	30.398 
21:30	22.2	22.2	22.2	77	16.1	2	6	112	0.00	30.395 
21:35	22.4	22.4	22.4	77	16.3	2	5	90	0.00	30.396 
21:40	22.4	22.4	22.4	77	16.3	2	4	112	0.00	30.397 
21:45	22.5	22.5	22.5	77	16.4	2	4	90	0.00	30.396 
21:50	22.5	22.5	22.5	77	16.4	2	5	90	0.00	30.384 
21:55	22.7	22.7	22.7	77	16.6	2	4	112	0.00	30.386 
22:00	22.7	22.7	22.7	77	16.6	2	5	112	0.00	30.382 
22:05	22.7	22.7	22.7	77	16.6	2	5	90	0.00	30.383 
22:10	22.7	22.7	22.7	77	16.6	2	5	112	0.00	30.382 
22:15	22.9	22.9	22.9	77	16.8	1	4	112	0.00	30.386 
22:20	22.9	22.9	22.9	78	17.1	0	2	112	0.00	30.393 
22:25	23.0	23.0	23.0	77	16.9	1	4	112	0.00	30.393 
22:30	23.0	23.0	23.0	77	16.9	1	3	112	0.00	30.386 
22:35	23.0	23.0	23.0	77	16.9	2	6	112	0.00	30.379 
22:40	23.2	23.2	23.2	77	17.1	2	4	112	0.00	30.375 
22:45	23.2	23.2	23.2	77	17.1	2	6	90	0.00	30.364 
22:50	23.2	23.2	23.2	77	17.1	3	6	112	0.00	30.363 
22:55	23.3	23.3	23.3	76	16.9	3	6	112	0.00	30.362 
23:00	23.3	23.3	23.3	76	16.9	1	5	112	0.00	30.360 
23:05	23.5	23.5	23.5	76	17.1	1	3	90	0.00	30.360 
23:10	23.5	23.5	23.5	76	17.1	1	5	112	0.00	30.361 
23:15	23.6	23.6	23.6	76	17.2	1	3	90	0.00	30.361 
23:20	23.6	23.6	23.6	76	17.2	1	3	90	0.00	30.360 
23:25	23.6	23.6	23.6	76	17.2	1	6	135	0.00	30.360 
23:30	23.6	23.6	23.6	76	17.2	1	3	112	0.00	30.361 
23:35	23.8	23.8	23.8	76	17.4	2	5	90	0.00	30.359 
23:40	23.8	23.8	23.8	77	17.7	1	4	112	0.00	30.354 
23:45	23.8	23.8	23.8	77	17.7	2	4	112	0.00	30.351 
23:50	23.9	23.9	23.9	77	17.8	2	6	90	0.00	30.353 
23:55	23.9	23.9	23.9	77	17.8	1	5	112	0.00	30.346 

CoCoRaHS
IN-AL-39
A2 Web Hosting
Creative Commons License
GoDaddy
search engine by freefind advanced

loaded 2018-11-12 15:10:47 • last modified 2010-11-18 10:43:29
Privacy PolicyDisclaimer
• wx.awcolley.com is powered by PmWiki v.2002016 •
• all content (unless otherwise noted) © 2018 A W Colley